Terminal Aerodrome Forecast
Issued by NWS

Current Version | Previous Version | Graphics & Text | Print | Product List | Glossary On
Versions: 1 2 3 4 5 6 7 8 9 10 11 12 13 14 15 16 17 18 19 20 21 22 23 24 25 26 27 28 29
589
FTUS41 KRLX 212324
TAFCKB
TAF
KCKB 212324Z 2200/2224 23004KT P6SM OVC025
     FM220800 00000KT 6SM BR SCT020
     FM220900 00000KT 1/2SM FG SCT006
     FM221000 00000KT 1/4SM FG BKN002
     FM221200 00000KT P6SM BKN010
     FM221400 20004KT P6SM BKN060
     FM221700 23006KT P6SM SHRA VCTS BKN035CB=

USA.gov is the U.S. government's official web portal to all federal, state and local government web resources and services.